Time;durP1;ratioP1;P1;durP2;ratioP2;P2;SDS_P1;SDS_P2;PMS_P1;PMS_P2;Temp;Humidity;BMP_temperature;BMP_pressure;BME280_temperature;BME280_humidity;BME280_pressure;Samples;Min_cycle;Max_cycle;Signal;HPM_P1;HPM_P2
2022/07/21 00:00:46;;;;;;;;;;;;;;;;;;5017562;28;19957;-24
2022/07/21 00:03:13;;;;;;;;;;;;;;;;;;5000222;28;19910;-24
2022/07/21 00:05:40;;;;;;;;;;;;;;;;;;5017271;28;19949;-25
2022/07/21 00:08:07;;;;;;;;;;;;;;;;;;5017625;28;20390;-25
2022/07/21 00:10:34;;;;;;;;;;;;;;;;;;5017243;28;19976;-25
2022/07/21 00:13:01;;;;;;;;;;;;;;;;;;5017687;28;19914;-24
2022/07/21 00:15:27;;;;;;;;;;;;;;;;;;5017603;28;19920;-25
2022/07/21 00:17:54;;;;;;;;;;;;;;;;;;4999872;28;19917;-24
2022/07/21 00:20:22;;;;;;;;;;;;;;;;;;5016944;28;19917;-25
2022/07/21 00:22:48;;;;;;;;;;;;;;;;;;4999965;28;19925;-25
2022/07/21 00:28:07;;;;;;;;;;;;;;;;;;5017296;28;20371;-24
2022/07/21 00:30:34;;;;;;;;;;;;;;;;;;4999345;28;19917;-24
2022/07/21 00:33:01;;;;;;;;;;;;;;;;;;5017415;28;19987;-24
2022/07/21 00:35:28;;;;;;;;;;;;;;;;;;4999691;28;19920;-25
2022/07/21 00:37:54;;;;;;;;;;;;;;;;;;5017051;28;19925;-26
2022/07/21 00:40:21;;;;;;;;;;;;;;;;;;5017214;28;19917;-24
2022/07/21 00:42:48;;;;;;;;;;;;;;;;;;4999461;28;19917;-24
2022/07/21 00:45:15;;;;;;;;;;;;;;;;;;5016832;28;19917;-24
2022/07/21 00:47:42;;;;;;;;;;;;;;;;;;5000307;28;19937;-25
2022/07/21 00:50:09;;;;;;;;;;;;;;;;;;5020882;28;19928;-25
2022/07/21 00:52:36;;;;;;;;;;;;;;;;;;5021028;28;20356;-25
2022/07/21 00:55:03;;;;;;;;;;;;;;;;;;5020892;28;19913;-25
2022/07/21 00:57:30;;;;;;;;;;;;;;;;;;5020660;28;19909;-25
2022/07/21 00:59:57;;;;;;;;;;;;;;;;;;5020764;28;20378;-25
2022/07/21 01:02:26;;;;;;;;;;;;;;;;;;5003372;28;19988;-25
2022/07/21 01:04:53;;;;;;;;;;;;;;;;;;5020926;28;19967;-25
2022/07/21 01:07:20;;;;;;;;;;;;;;;;;;5020199;28;20295;-25
2022/07/21 01:09:47;;;;;;;;;;;;;;;;;;5020536;28;19984;-25
2022/07/21 01:12:14;;;;;;;;;;;;;;;;;;5003277;28;19914;-24
2022/07/21 01:14:41;;;;;;;;;;;;;;;;;;5020615;28;19913;-25
2022/07/21 01:17:08;;;;;;;;;;;;;;;;;;5002797;28;19913;-24
2022/07/21 01:19:35;;;;;;;;;;;;;;;;;;5020616;28;19955;-25
2022/07/21 01:22:02;;;;;;;;;;;;;;;;;;5003651;28;19918;-24
2022/07/21 01:24:29;;;;;;;;;;;;;;;;;;5020203;28;19920;-24
2022/07/21 01:26:56;;;;;;;;;;;;;;;;;;5003125;28;19914;-25
2022/07/21 01:29:23;;;;;;;;;;;;;;;;;;5020159;28;19917;-24
2022/07/21 01:31:50;;;;;;;;;;;;;;;;;;5020235;28;19948;-24
2022/07/21 01:34:18;;;;;;;;;;;;;;;;;;5002679;28;19917;-24
2022/07/21 01:36:45;;;;;;;;;;;;;;;;;;5019945;28;19913;-25
2022/07/21 01:41:57;;;;;;;;;;;;;;;;;;5020048;28;19923;-24
2022/07/21 01:44:23;;;;;;;;;;;;;;;;;;5020203;28;19910;-25
2022/07/21 01:46:50;;;;;;;;;;;;;;;;;;5019475;28;20000;-25
2022/07/21 01:49:18;;;;;;;;;;;;;;;;;;5019443;28;19972;-25
2022/07/21 01:51:45;;;;;;;;;;;;;;;;;;5019618;28;19914;-25
2022/07/21 01:54:12;;;;;;;;;;;;;;;;;;5002449;28;20340;-25
2022/07/21 01:56:39;;;;;;;;;;;;;;;;;;5001943;28;20361;-24
2022/07/21 01:59:06;;;;;;;;;;;;;;;;;;5000855;28;19913;-25
2022/07/21 02:01:33;;;;;;;;;;;;;;;;;;5019925;28;20004;-24
2022/07/21 02:04:00;;;;;;;;;;;;;;;;;;5002454;28;20015;-24
2022/07/21 02:06:28;;;;;;;;;;;;;;;;;;5003046;28;20295;-25
2022/07/21 02:08:55;;;;;;;;;;;;;;;;;;5002149;28;19967;-25
2022/07/21 02:11:23;;;;;;;;;;;;;;;;;;5001622;28;19913;-24
2022/07/21 02:13:50;;;;;;;;;;;;;;;;;;5019626;28;19913;-25
2022/07/21 02:16:17;;;;;;;;;;;;;;;;;;5018992;28;19968;-24
2022/07/21 02:18:44;;;;;;;;;;;;;;;;;;5019140;28;19913;-24
2022/07/21 02:21:11;;;;;;;;;;;;;;;;;;5001956;28;19944;-25
2022/07/21 02:23:37;;;;;;;;;;;;;;;;;;5019049;28;19928;-25
2022/07/21 02:26:04;;;;;;;;;;;;;;;;;;5019100;28;20256;-24
2022/07/21 02:28:33;;;;;;;;;;;;;;;;;;5018608;28;19917;-25
2022/07/21 02:30:59;;;;;;;;;;;;;;;;;;5018815;28;19917;-25
2022/07/21 02:33:27;;;;;;;;;;;;;;;;;;5001629;28;20264;-24
2022/07/21 02:35:53;;;;;;;;;;;;;;;;;;5019083;28;19913;-25
2022/07/21 02:38:20;;;;;;;;;;;;;;;;;;5018483;28;19948;-24
2022/07/21 02:40:48;;;;;;;;;;;;;;;;;;5018949;28;19917;-25
2022/07/21 02:43:16;;;;;;;;;;;;;;;;;;5001309;28;20277;-25
2022/07/21 02:45:44;;;;;;;;;;;;;;;;;;5018621;28;19921;-25
2022/07/21 02:48:11;;;;;;;;;;;;;;;;;;5000972;28;19943;-24
2022/07/21 02:50:38;;;;;;;;;;;;;;;;;;5018997;28;19925;-24
2022/07/21 02:53:05;;;;;;;;;;;;;;;;;;5018594;28;19913;-25
2022/07/21 02:55:32;;;;;;;;;;;;;;;;;;5000982;28;19924;-25
2022/07/21 02:57:59;;;;;;;;;;;;;;;;;;5018454;28;19955;-25
2022/07/21 03:00:25;;;;;;;;;;;;;;;;;;5018434;28;20008;-26
2022/07/21 03:02:52;;;;;;;;;;;;;;;;;;5018265;28;19952;-24
2022/07/21 03:05:19;;;;;;;;;;;;;;;;;;5018529;28;19917;-25
2022/07/21 03:07:45;;;;;;;;;;;;;;;;;;5000850;28;19913;-24
2022/07/21 03:10:12;;;;;;;;;;;;;;;;;;5000588;28;19914;-24
2022/07/21 03:12:39;;;;;;;;;;;;;;;;;;5001093;28;19924;-24
2022/07/21 03:15:06;;;;;;;;;;;;;;;;;;5018257;28;19909;-24
2022/07/21 03:17:33;;;;;;;;;;;;;;;;;;5018438;28;19920;-24
2022/07/21 03:20:00;;;;;;;;;;;;;;;;;;5018081;28;20339;-24
2022/07/21 03:22:26;;;;;;;;;;;;;;;;;;5000498;28;19921;-24
2022/07/21 03:24:53;;;;;;;;;;;;;;;;;;5000352;28;19932;-25
2022/07/21 03:27:20;;;;;;;;;;;;;;;;;;5000361;28;19917;-24
2022/07/21 03:29:47;;;;;;;;;;;;;;;;;;5018120;28;19996;-25
2022/07/21 03:32:14;;;;;;;;;;;;;;;;;;5000209;28;19976;-25
2022/07/21 03:34:41;;;;;;;;;;;;;;;;;;5017788;28;19917;-25
2022/07/21 03:37:08;;;;;;;;;;;;;;;;;;5017175;28;19925;-24
2022/07/21 03:39:35;;;;;;;;;;;;;;;;;;4999865;28;20333;-24
2022/07/21 03:42:02;;;;;;;;;;;;;;;;;;5000067;28;19913;-24
2022/07/21 03:44:29;;;;;;;;;;;;;;;;;;4999858;28;19910;-25
2022/07/21 03:46:58;;;;;;;;;;;;;;;;;;5017572;28;20363;-25
2022/07/21 03:49:26;;;;;;;;;;;;;;;;;;5017179;28;20382;-24
2022/07/21 03:51:53;;;;;;;;;;;;;;;;;;5017432;28;19924;-25
2022/07/21 03:54:20;;;;;;;;;;;;;;;;;;5017439;28;19909;-24
2022/07/21 03:56:47;;;;;;;;;;;;;;;;;;4999661;28;20015;-25
2022/07/21 03:59:15;;;;;;;;;;;;;;;;;;4999353;28;20304;-25
2022/07/21 04:04:25;;;;;;;;;;;;;;;;;;4966065;26;19930;-25
2022/07/21 04:06:53;;;;;;;;;;;;;;;;;;4997058;28;19922;-25
2022/07/21 04:09:20;;;;;;;;;;;;;;;;;;4980369;28;19910;-25
2022/07/21 04:11:48;;;;;;;;;;;;;;;;;;4980054;28;20349;-26
2022/07/21 04:14:19;;;;;;;;;;;;;;;;;;4961237;28;19925;-25
2022/07/21 04:16:51;;;;;;;;;;;;;;;;;;4960813;28;19914;-25
2022/07/21 04:19:18;;;;;;;;;;;;;;;;;;4961291;28;19916;-25
2022/07/21 04:21:46;;;;;;;;;;;;;;;;;;4960899;28;20273;-25
2022/07/21 04:24:13;;;;;;;;;;;;;;;;;;4981987;28;19921;-25
2022/07/21 04:26:40;;;;;;;;;;;;;;;;;;4982070;28;20009;-25
2022/07/21 04:29:07;;;;;;;;;;;;;;;;;;4964329;28;20364;-25
2022/07/21 04:31:35;;;;;;;;;;;;;;;;;;4981641;28;19929;-25
2022/07/21 04:34:01;;;;;;;;;;;;;;;;;;4965462;28;19922;-25
2022/07/21 04:36:28;;;;;;;;;;;;;;;;;;4981793;28;19925;-26
2022/07/21 04:38:56;;;;;;;;;;;;;;;;;;4982382;28;19910;-25
2022/07/21 04:41:22;;;;;;;;;;;;;;;;;;4981499;28;19914;-25
2022/07/21 04:43:51;;;;;;;;;;;;;;;;;;4964076;28;19910;-23
2022/07/21 04:46:18;;;;;;;;;;;;;;;;;;4981146;28;19941;-23
2022/07/21 04:48:45;;;;;;;;;;;;;;;;;;4964261;28;19923;-24
2022/07/21 04:51:16;;;;;;;;;;;;;;;;;;4981220;28;19941;-24
2022/07/21 04:53:43;;;;;;;;;;;;;;;;;;4964032;28;20388;-24
2022/07/21 04:56:10;;;;;;;;;;;;;;;;;;4964225;28;19914;-24
2022/07/21 04:58:37;;;;;;;;;;;;;;;;;;4964567;28;20029;-24
2022/07/21 05:01:04;;;;;;;;;;;;;;;;;;4964070;28;20301;-25
2022/07/21 05:03:31;;;;;;;;;;;;;;;;;;4982232;28;19961;-24
2022/07/21 05:05:58;;;;;;;;;;;;;;;;;;4981426;28;20013;-24
2022/07/21 05:08:29;;;;;;;;;;;;;;;;;;4981106;28;19960;-24
2022/07/21 05:10:58;;;;;;;;;;;;;;;;;;4963557;28;19919;-24
2022/07/21 05:13:26;;;;;;;;;;;;;;;;;;4980453;28;19918;-24
2022/07/21 05:15:53;;;;;;;;;;;;;;;;;;4980815;28;19925;-25
2022/07/21 05:18:21;;;;;;;;;;;;;;;;;;4980950;28;19910;-24
2022/07/21 05:20:51;;;;;;;;;;;;;;;;;;4980454;28;19921;-25
2022/07/21 05:23:20;;;;;;;;;;;;;;;;;;4979880;28;19910;-25
2022/07/21 05:25:46;;;;;;;;;;;;;;;;;;4979897;28;20337;-24
2022/07/21 05:28:15;;;;;;;;;;;;;;;;;;4980102;28;19910;-25
2022/07/21 05:30:41;;;;;;;;;;;;;;;;;;4979704;28;20349;-25
2022/07/21 05:33:09;;;;;;;;;;;;;;;;;;4979681;28;19910;-24
2022/07/21 05:35:36;;;;;;;;;;;;;;;;;;4980378;28;20305;-25
2022/07/21 05:38:03;;;;;;;;;;;;;;;;;;4980005;28;20008;-25
2022/07/21 05:40:33;;;;;;;;;;;;;;;;;;4962803;28;19914;-24
2022/07/21 05:43:02;;;;;;;;;;;;;;;;;;4962672;28;19920;-25
2022/07/21 05:45:29;;;;;;;;;;;;;;;;;;4963482;28;19925;-25
2022/07/21 05:47:56;;;;;;;;;;;;;;;;;;4963064;28;20008;-24
2022/07/21 05:50:26;;;;;;;;;;;;;;;;;;4980391;28;20363;-25
2022/07/21 05:52:54;;;;;;;;;;;;;;;;;;4962813;28;20001;-24
2022/07/21 05:55:22;;;;;;;;;;;;;;;;;;4963060;28;19914;-24
2022/07/21 05:57:49;;;;;;;;;;;;;;;;;;4980368;28;19997;-24
2022/07/21 06:00:16;;;;;;;;;;;;;;;;;;4963279;28;20000;-24
2022/07/21 06:02:45;;;;;;;;;;;;;;;;;;4979545;28;19922;-24
2022/07/21 06:05:12;;;;;;;;;;;;;;;;;;4980518;28;19961;-24
2022/07/21 06:07:53;;;;;;;;;;;;;;;;;;4980153;28;19942;-24
2022/07/21 06:10:21;;;;;;;;;;;;;;;;;;4979829;28;19922;-24
2022/07/21 06:12:52;;;;;;;;;;;;;;;;;;4980222;28;19949;-25
2022/07/21 06:15:32;;;;;;;;;;;;;;;;;;4963080;28;19914;-25
2022/07/21 06:18:00;;;;;;;;;;;;;;;;;;4979352;28;19910;-24
2022/07/21 06:20:27;;;;;;;;;;;;;;;;;;4962043;28;19914;-25
2022/07/21 06:22:55;;;;;;;;;;;;;;;;;;4963585;28;19989;-24
2022/07/21 06:25:23;;;;;;;;;;;;;;;;;;4961749;28;19918;-24
2022/07/21 06:27:52;;;;;;;;;;;;;;;;;;4962315;28;19910;-24
2022/07/21 06:30:21;;;;;;;;;;;;;;;;;;4979740;28;20077;-24
2022/07/21 06:33:04;;;;;;;;;;;;;;;;;;4978721;28;19978;-24
2022/07/21 06:35:33;;;;;;;;;;;;;;;;;;4961557;28;20302;-24
2022/07/21 06:38:01;;;;;;;;;;;;;;;;;;4978929;28;19925;-24
2022/07/21 06:43:21;;;;;;;;;;;;;;;;;;4979848;28;19969;-23
2022/07/21 06:45:50;;;;;;;;;;;;;;;;;;4979191;28;19965;-24
2022/07/21 06:48:19;;;;;;;;;;;;;;;;;;4979580;28;19936;-24
2022/07/21 06:50:47;;;;;;;;;;;;;;;;;;4979121;28;20231;-23
2022/07/21 06:53:14;;;;;;;;;;;;;;;;;;4979028;28;19997;-23
2022/07/21 06:55:42;;;;;;;;;;;;;;;;;;4962142;28;19918;-24
2022/07/21 06:58:13;;;;;;;;;;;;;;;;;;4979205;28;19910;-24
2022/07/21 07:00:44;;;;;;;;;;;;;;;;;;4978762;28;20257;-24
2022/07/21 07:05:57;;;;;;;;;;;;;;;;;;4997587;28;19928;-24
2022/07/21 07:08:25;;;;;;;;;;;;;;;;;;4982223;28;20025;-24
2022/07/21 07:10:52;;;;;;;;;;;;;;;;;;4999545;28;19928;-24
2022/07/21 07:13:24;;;;;;;;;;;;;;;;;;4997429;28;19921;-24
2022/07/21 07:15:52;;;;;;;;;;;;;;;;;;4997744;28;19924;-24
2022/07/21 07:18:24;;;;;;;;;;;;;;;;;;4997862;28;20025;-24
2022/07/21 07:20:56;;;;;;;;;;;;;;;;;;4997855;28;20383;-24
2022/07/21 07:26:15;;;;;;;;;;;;;;;;;;4999067;28;19924;-24
2022/07/21 07:28:52;;;;;;;;;;;;;;;;;;4980805;28;19972;-24
2022/07/21 07:31:19;;;;;;;;;;;;;;;;;;4998051;28;19917;-24
2022/07/21 07:33:50;;;;;;;;;;;;;;;;;;4997866;28;19969;-24
2022/07/21 07:36:19;;;;;;;;;;;;;;;;;;4997238;28;19914;-24
2022/07/21 07:38:51;;;;;;;;;;;;;;;;;;4997482;28;19933;-24
2022/07/21 07:41:24;;;;;;;;;;;;;;;;;;4980488;28;20344;-24
2022/07/21 07:43:52;;;;;;;;;;;;;;;;;;4979871;28;19914;-24
2022/07/21 07:46:20;;;;;;;;;;;;;;;;;;4980023;28;19918;-30
2022/07/21 07:48:47;;;;;;;;;;;;;;;;;;4979959;28;19925;-24
2022/07/21 07:51:15;;;;;;;;;;;;;;;;;;4998321;28;19914;-24
2022/07/21 07:53:43;;;;;;;;;;;;;;;;;;4997794;28;19952;-24
2022/07/21 07:56:13;;;;;;;;;;;;;;;;;;4980422;28;20364;-24
2022/07/21 07:58:41;;;;;;;;;;;;;;;;;;4996272;28;19917;-24
2022/07/21 08:01:10;;;;;;;;;;;;;;;;;;4997208;28;20315;-24
2022/07/21 08:03:38;;;;;;;;;;;;;;;;;;4984239;28;19993;-24
2022/07/21 08:06:06;;;;;;;;;;;;;;;;;;4976935;28;19997;-24
2022/07/21 08:08:33;;;;;;;;;;;;;;;;;;4977873;28;19918;-23
2022/07/21 08:11:03;;;;;;;;;;;;;;;;;;4961740;28;19928;-24
2022/07/21 08:13:40;;;;;;;;;;;;;;;;;;4978154;28;19918;-24
2022/07/21 08:16:08;;;;;;;;;;;;;;;;;;4978049;28;19914;-24
2022/07/21 08:18:36;;;;;;;;;;;;;;;;;;4977322;28;19932;-24
2022/07/21 08:21:03;;;;;;;;;;;;;;;;;;4977886;28;19914;-24
2022/07/21 08:23:40;;;;;;;;;;;;;;;;;;4961418;28;19910;-24
2022/07/21 08:26:08;;;;;;;;;;;;;;;;;;4959760;28;19914;-24
2022/07/21 08:28:39;;;;;;;;;;;;;;;;;;4977803;28;19937;-24
2022/07/21 08:31:18;;;;;;;;;;;;;;;;;;4978644;28;19918;-24
2022/07/21 08:33:51;;;;;;;;;;;;;;;;;;4960747;28;20009;-24
2022/07/21 08:36:27;;;;;;;;;;;;;;;;;;4978060;28;19914;-24
2022/07/21 08:38:55;;;;;;;;;;;;;;;;;;4960542;28;19946;-23
2022/07/21 08:41:25;;;;;;;;;;;;;;;;;;4960193;28;19989;-24
2022/07/21 08:43:53;;;;;;;;;;;;;;;;;;4960557;28;19910;-24
2022/07/21 08:46:22;;;;;;;;;;;;;;;;;;4977237;28;19915;-24
2022/07/21 08:48:52;;;;;;;;;;;;;;;;;;4976956;28;20302;-24
2022/07/21 08:51:19;;;;;;;;;;;;;;;;;;4959055;28;19922;-24
2022/07/21 08:53:47;;;;;;;;;;;;;;;;;;4976336;28;19928;-24
2022/07/21 08:56:15;;;;;;;;;;;;;;;;;;4959485;28;20238;-24
2022/07/21 09:01:37;;;;;;;;;;;;;;;;;;4976398;28;19925;-24
2022/07/21 09:04:05;;;;;;;;;;;;;;;;;;4976410;28;20009;-24
2022/07/21 09:06:40;;;;;;;;;;;;;;;;;;4977126;28;19910;-24
2022/07/21 09:09:12;;;;;;;;;;;;;;;;;;4979479;28;19914;-24
2022/07/21 09:11:42;;;;;;;;;;;;;;;;;;4980843;28;19953;-24
2022/07/21 09:14:12;;;;;;;;;;;;;;;;;;4980631;28;20262;-23
2022/07/21 09:16:39;;;;;;;;;;;;;;;;;;4963572;28;19914;-24
2022/07/21 09:19:06;;;;;;;;;;;;;;;;;;4981107;28;19968;-24
2022/07/21 09:21:54;;;;;;;;;;;;;;;;;;4981252;28;19921;-24
2022/07/21 09:24:22;;;;;;;;;;;;;;;;;;4980245;28;19921;-24
2022/07/21 09:26:51;;;;;;;;;;;;;;;;;;4981331;28;19918;-24
2022/07/21 09:32:16;;;;;;;;;;;;;;;;;;4981126;28;20254;-24
2022/07/21 09:34:43;;;;;;;;;;;;;;;;;;4964176;28;19973;-24
2022/07/21 09:37:18;;;;;;;;;;;;;;;;;;4982107;28;20372;-24
2022/07/21 09:39:50;;;;;;;;;;;;;;;;;;4981240;28;20321;-24
2022/07/21 09:42:22;;;;;;;;;;;;;;;;;;4982267;28;19953;-24
2022/07/21 09:44:51;;;;;;;;;;;;;;;;;;4964791;28;20297;-24
2022/07/21 09:47:20;;;;;;;;;;;;;;;;;;4981043;28;19921;-25
2022/07/21 09:49:53;;;;;;;;;;;;;;;;;;4980694;28;20411;-24
2022/07/21 09:52:25;;;;;;;;;;;;;;;;;;4981161;28;19986;-24
2022/07/21 09:55:08;;;;;;;;;;;;;;;;;;4980685;28;19969;-24
2022/07/21 09:57:43;;;;;;;;;;;;;;;;;;4980945;28;19989;-25
2022/07/21 10:00:26;;;;;;;;;;;;;;;;;;4982046;28;19925;-24
2022/07/21 10:05:47;;;;;;;;;;;;;;;;;;5001845;28;19961;-24
2022/07/21 10:08:17;;;;;;;;;;;;;;;;;;5002358;28;20009;-24
2022/07/21 10:10:52;;;;;;;;;;;;;;;;;;5001092;28;19929;-25
2022/07/21 10:13:24;;;;;;;;;;;;;;;;;;4982962;28;19971;-24
2022/07/21 10:15:56;;;;;;;;;;;;;;;;;;5000348;28;20356;-24
2022/07/21 10:18:37;;;;;;;;;;;;;;;;;;4983484;28;19914;-24
2022/07/21 10:21:10;;;;;;;;;;;;;;;;;;5000310;28;19914;-24
2022/07/21 10:23:39;;;;;;;;;;;;;;;;;;4982052;28;20083;-24
2022/07/21 10:26:40;;;;;;;;;;;;;;;;;;4998434;28;19993;-25
2022/07/21 10:29:16;;;;;;;;;;;;;;;;;;4982806;28;20222;-24
2022/07/21 10:31:47;;;;;;;;;;;;;;;;;;4999703;28;19929;-24
2022/07/21 10:34:14;;;;;;;;;;;;;;;;;;4998460;28;19924;-24
2022/07/21 10:36:41;;;;;;;;;;;;;;;;;;4999373;28;19929;-24
2022/07/21 10:39:17;;;;;;;;;;;;;;;;;;4982146;28;19910;-24
2022/07/21 10:41:45;;;;;;;;;;;;;;;;;;4998934;28;19910;-24
2022/07/21 10:44:14;;;;;;;;;;;;;;;;;;4998995;28;19964;-24
2022/07/21 10:46:44;;;;;;;;;;;;;;;;;;4999688;28;19925;-24
2022/07/21 10:49:19;;;;;;;;;;;;;;;;;;4982174;28;19928;-24
2022/07/21 10:51:46;;;;;;;;;;;;;;;;;;4998584;28;20234;-24
2022/07/21 10:54:14;;;;;;;;;;;;;;;;;;4999299;28;19910;-24
2022/07/21 10:56:44;;;;;;;;;;;;;;;;;;4981756;28;19913;-24
2022/07/21 10:59:17;;;;;;;;;;;;;;;;;;4981532;28;20013;-24
2022/07/21 11:01:45;;;;;;;;;;;;;;;;;;4998681;28;19921;-25
2022/07/21 11:04:22;;;;;;;;;;;;;;;;;;4964563;28;19929;-25
2022/07/21 11:06:50;;;;;;;;;;;;;;;;;;4978929;28;19906;-25
2022/07/21 11:09:20;;;;;;;;;;;;;;;;;;4961008;28;20345;-24
2022/07/21 11:11:48;;;;;;;;;;;;;;;;;;4977888;28;20333;-25
2022/07/21 11:14:15;;;;;;;;;;;;;;;;;;4978343;28;19918;-24
2022/07/21 11:17:04;;;;;;;;;;;;;;;;;;4960969;28;19914;-24
2022/07/21 11:19:30;;;;;;;;;;;;;;;;;;4977210;28;19914;-24
2022/07/21 11:21:57;;;;;;;;;;;;;;;;;;4978943;28;20024;-24
2022/07/21 11:24:34;;;;;;;;;;;;;;;;;;4979024;28;20336;-24
2022/07/21 11:27:01;;;;;;;;;;;;;;;;;;4961067;28;20029;-24
2022/07/21 11:29:35;;;;;;;;;;;;;;;;;;4961346;28;19910;-28
2022/07/21 11:34:55;;;;;;;;;;;;;;;;;;4978588;28;19920;-24
2022/07/21 11:37:24;;;;;;;;;;;;;;;;;;4978720;28;19914;-23
2022/07/21 11:39:51;;;;;;;;;;;;;;;;;;4962011;28;19921;-23
2022/07/21 11:42:20;;;;;;;;;;;;;;;;;;4961171;28;19914;-23
2022/07/21 11:44:47;;;;;;;;;;;;;;;;;;4961371;28;19910;-24
2022/07/21 11:47:16;;;;;;;;;;;;;;;;;;4978026;28;20329;-24
2022/07/21 11:49:51;;;;;;;;;;;;;;;;;;4979460;28;19910;-24
2022/07/21 11:52:21;;;;;;;;;;;;;;;;;;4978411;28;19914;-24
2022/07/21 11:54:49;;;;;;;;;;;;;;;;;;4978068;28;19993;-24
2022/07/21 11:57:16;;;;;;;;;;;;;;;;;;4978014;28;19914;-24
2022/07/21 11:59:50;;;;;;;;;;;;;;;;;;4960763;28;20238;-25
2022/07/21 12:02:19;;;;;;;;;;;;;;;;;;4977836;28;19922;-24
2022/07/21 12:04:48;;;;;;;;;;;;;;;;;;4976795;28;19980;-24
2022/07/21 12:07:20;;;;;;;;;;;;;;;;;;4996967;28;19914;-24
2022/07/21 12:09:48;;;;;;;;;;;;;;;;;;4979779;28;19913;-24
2022/07/21 12:12:32;;;;;;;;;;;;;;;;;;4998177;28;20021;-24
2022/07/21 12:15:00;;;;;;;;;;;;;;;;;;4979961;28;19964;-24
2022/07/21 12:17:29;;;;;;;;;;;;;;;;;;4998449;28;19914;-23
2022/07/21 12:19:58;;;;;;;;;;;;;;;;;;4997802;28;20319;-24
2022/07/21 12:25:17;;;;;;;;;;;;;;;;;;4997428;28;19921;-24
2022/07/21 12:27:46;;;;;;;;;;;;;;;;;;4997561;28;19925;-24
2022/07/21 12:30:13;;;;;;;;;;;;;;;;;;4995507;28;19918;-24
2022/07/21 12:32:46;;;;;;;;;;;;;;;;;;4995458;28;19944;-24
2022/07/21 12:35:14;;;;;;;;;;;;;;;;;;4997605;28;19945;-24
2022/07/21 12:37:44;;;;;;;;;;;;;;;;;;4996365;28;20071;-24
2022/07/21 12:40:13;;;;;;;;;;;;;;;;;;4996338;28;19945;-24
2022/07/21 12:42:39;;;;;;;;;;;;;;;;;;4997301;28;20021;-24
2022/07/21 12:45:06;;;;;;;;;;;;;;;;;;4983631;28;19972;-24
2022/07/21 12:47:39;;;;;;;;;;;;;;;;;;5001150;28;19917;-24
2022/07/21 12:50:07;;;;;;;;;;;;;;;;;;4984318;28;19917;-24
2022/07/21 12:52:34;;;;;;;;;;;;;;;;;;4984264;28;19910;-25
2022/07/21 12:55:02;;;;;;;;;;;;;;;;;;5001093;28;19964;-25
2022/07/21 12:57:30;;;;;;;;;;;;;;;;;;4984688;28;19919;-25
2022/07/21 13:00:04;;;;;;;;;;;;;;;;;;5000891;28;19964;-25
2022/07/21 13:02:33;;;;;;;;;;;;;;;;;;5000397;28;19925;-25
2022/07/21 13:05:03;;;;;;;;;;;;;;;;;;4982251;28;20009;-25
2022/07/21 13:07:31;;;;;;;;;;;;;;;;;;4981348;28;19914;-25
2022/07/21 13:10:00;;;;;;;;;;;;;;;;;;4963856;28;20044;-25
2022/07/21 13:12:33;;;;;;;;;;;;;;;;;;4981331;28;19915;-24
2022/07/21 13:15:01;;;;;;;;;;;;;;;;;;4981264;28;19914;-25
2022/07/21 13:17:32;;;;;;;;;;;;;;;;;;4980898;28;20037;-25
2022/07/21 13:20:05;;;;;;;;;;;;;;;;;;4981843;28;20009;-24
2022/07/21 13:22:33;;;;;;;;;;;;;;;;;;4981353;28;19910;-25
2022/07/21 13:25:01;;;;;;;;;;;;;;;;;;4981289;28;19914;-25
2022/07/21 13:27:39;;;;;;;;;;;;;;;;;;4981405;28;20268;-24
2022/07/21 13:30:08;;;;;;;;;;;;;;;;;;4964066;28;20305;-24
2022/07/21 13:32:36;;;;;;;;;;;;;;;;;;4963311;28;19915;-24
2022/07/21 13:35:03;;;;;;;;;;;;;;;;;;4982301;28;19922;-24
2022/07/21 13:37:44;;;;;;;;;;;;;;;;;;4980699;28;22869;-24
2022/07/21 13:40:11;;;;;;;;;;;;;;;;;;4981247;28;19981;-25
2022/07/21 13:42:38;;;;;;;;;;;;;;;;;;4980630;28;20242;-25
2022/07/21 13:45:07;;;;;;;;;;;;;;;;;;4964566;28;20294;-25
2022/07/21 13:47:35;;;;;;;;;;;;;;;;;;4963878;28;19914;-25
2022/07/21 13:50:02;;;;;;;;;;;;;;;;;;4980982;28;19914;-25
2022/07/21 13:52:29;;;;;;;;;;;;;;;;;;4981281;28;20288;-25
2022/07/21 13:54:58;;;;;;;;;;;;;;;;;;4963251;28;19910;-25
2022/07/21 13:57:27;;;;;;;;;;;;;;;;;;4982506;28;19918;-25
2022/07/21 13:59:54;;;;;;;;;;;;;;;;;;4981209;28;19925;-25
2022/07/21 14:02:31;;;;;;;;;;;;;;;;;;4981178;28;19925;-25
2022/07/21 14:04:58;;;;;;;;;;;;;;;;;;4982177;28;19957;-25
2022/07/21 14:07:30;;;;;;;;;;;;;;;;;;4980616;28;19977;-25
2022/07/21 14:09:58;;;;;;;;;;;;;;;;;;4980533;28;20009;-25
2022/07/21 14:12:26;;;;;;;;;;;;;;;;;;4964622;28;20308;-25
2022/07/21 14:14:57;;;;;;;;;;;;;;;;;;4981356;28;19920;-25
2022/07/21 14:17:29;;;;;;;;;;;;;;;;;;4981072;28;19926;-25
2022/07/21 14:20:00;;;;;;;;;;;;;;;;;;4979908;28;19953;-25
2022/07/21 14:22:31;;;;;;;;;;;;;;;;;;4963456;28;20374;-25
2022/07/21 14:27:44;;;;;;;;;;;;;;;;;;4980268;28;19924;-24
2022/07/21 14:30:11;;;;;;;;;;;;;;;;;;4963336;28;19918;-24
2022/07/21 14:32:38;;;;;;;;;;;;;;;;;;4979837;28;19925;-25
2022/07/21 14:35:06;;;;;;;;;;;;;;;;;;4980137;28;20346;-25
2022/07/21 14:37:33;;;;;;;;;;;;;;;;;;4980582;28;20353;-24
2022/07/21 14:40:01;;;;;;;;;;;;;;;;;;4962480;28;19910;-25
2022/07/21 14:42:28;;;;;;;;;;;;;;;;;;4979105;28;20321;-24
2022/07/21 14:44:59;;;;;;;;;;;;;;;;;;4979648;28;19973;-24
2022/07/21 14:47:46;;;;;;;;;;;;;;;;;;4980838;28;19925;-25
2022/07/21 14:53:07;;;;;;;;;;;;;;;;;;4979257;28;19925;-29
2022/07/21 14:55:35;;;;;;;;;;;;;;;;;;4980107;28;20365;-28
2022/07/21 14:58:02;;;;;;;;;;;;;;;;;;4979854;28;19949;-24
2022/07/21 15:00:30;;;;;;;;;;;;;;;;;;4963131;28;20254;-30
2022/07/21 15:03:02;;;;;;;;;;;;;;;;;;4962139;28;20042;-29
2022/07/21 15:05:29;;;;;;;;;;;;;;;;;;4963245;28;19941;-27
2022/07/21 15:07:56;;;;;;;;;;;;;;;;;;4962120;28;20048;-32
2022/07/21 15:10:23;;;;;;;;;;;;;;;;;;4979801;28;19968;-29
2022/07/21 15:12:50;;;;;;;;;;;;;;;;;;4962447;28;20021;-29
2022/07/21 15:15:22;;;;;;;;;;;;;;;;;;4961134;28;20210;-28
2022/07/21 15:17:50;;;;;;;;;;;;;;;;;;4978423;28;19910;-27
2022/07/21 15:20:18;;;;;;;;;;;;;;;;;;4962140;28;20301;-28
2022/07/21 15:22:45;;;;;;;;;;;;;;;;;;4961890;28;19918;-25
2022/07/21 15:25:13;;;;;;;;;;;;;;;;;;4978559;28;20264;-29
2022/07/21 15:27:42;;;;;;;;;;;;;;;;;;4978181;28;19929;-30
2022/07/21 15:30:09;;;;;;;;;;;;;;;;;;4961001;28;20018;-28
2022/07/21 15:32:37;;;;;;;;;;;;;;;;;;4977868;28;19953;-30
2022/07/21 15:35:04;;;;;;;;;;;;;;;;;;4961643;28;19925;-29
2022/07/21 15:37:32;;;;;;;;;;;;;;;;;;4979049;28;20296;-25
2022/07/21 15:40:00;;;;;;;;;;;;;;;;;;4978837;28;20219;-27
2022/07/21 15:42:30;;;;;;;;;;;;;;;;;;4978658;28;20001;-26
2022/07/21 15:44:57;;;;;;;;;;;;;;;;;;4978445;28;20012;-28
2022/07/21 15:47:27;;;;;;;;;;;;;;;;;;4978650;28;20372;-26
2022/07/21 15:49:56;;;;;;;;;;;;;;;;;;4978649;28;19937;-26
2022/07/21 15:52:23;;;;;;;;;;;;;;;;;;4961939;28;19914;-30
2022/07/21 15:54:50;;;;;;;;;;;;;;;;;;4978757;28;19910;-28
2022/07/21 15:57:17;;;;;;;;;;;;;;;;;;4961264;28;20009;-36
2022/07/21 15:59:44;;;;;;;;;;;;;;;;;;4961611;28;19942;-31
2022/07/21 16:02:12;;;;;;;;;;;;;;;;;;4961670;28;19975;-29
2022/07/21 16:04:39;;;;;;;;;;;;;;;;;;4978618;28;19922;-26
2022/07/21 16:07:06;;;;;;;;;;;;;;;;;;4978758;28;19951;-28
2022/07/21 16:09:33;;;;;;;;;;;;;;;;;;4978912;28;19937;-27
2022/07/21 16:12:01;;;;;;;;;;;;;;;;;;4978054;28;19989;-26
2022/07/21 16:14:29;;;;;;;;;;;;;;;;;;4961317;28;19910;-28
2022/07/21 16:16:57;;;;;;;;;;;;;;;;;;4961023;28;19914;-26
2022/07/21 16:19:23;;;;;;;;;;;;;;;;;;4977717;28;19932;-31
2022/07/21 16:21:51;;;;;;;;;;;;;;;;;;4978572;28;19920;-28
2022/07/21 16:24:18;;;;;;;;;;;;;;;;;;4978372;28;19914;-34
2022/07/21 16:26:46;;;;;;;;;;;;;;;;;;4978428;28;19914;-28
2022/07/21 16:29:13;;;;;;;;;;;;;;;;;;4978650;28;19910;-28
2022/07/21 16:31:40;;;;;;;;;;;;;;;;;;4978644;28;19918;-29
2022/07/21 16:34:07;;;;;;;;;;;;;;;;;;4978397;28;20000;-28
2022/07/21 16:36:34;;;;;;;;;;;;;;;;;;4978793;28;19924;-28
2022/07/21 16:39:04;;;;;;;;;;;;;;;;;;4978328;28;19914;-34
2022/07/21 16:41:31;;;;;;;;;;;;;;;;;;4978760;28;19918;-28
2022/07/21 16:43:58;;;;;;;;;;;;;;;;;;4977938;28;19950;-32
2022/07/21 16:46:26;;;;;;;;;;;;;;;;;;4978407;28;19910;-25
2022/07/21 16:48:53;;;;;;;;;;;;;;;;;;4978426;28;19914;-28
2022/07/21 16:51:21;;;;;;;;;;;;;;;;;;4978418;28;19918;-25
2022/07/21 16:53:48;;;;;;;;;;;;;;;;;;4960718;28;19925;-28
2022/07/21 16:56:15;;;;;;;;;;;;;;;;;;4978465;28;19915;-25
2022/07/21 16:58:42;;;;;;;;;;;;;;;;;;4977650;28;19938;-28
2022/07/21 17:01:10;;;;;;;;;;;;;;;;;;4977930;28;19914;-26
2022/07/21 17:03:37;;;;;;;;;;;;;;;;;;4977560;28;19958;-31
2022/07/21 17:06:04;;;;;;;;;;;;;;;;;;4960845;28;19915;-30
2022/07/21 17:08:31;;;;;;;;;;;;;;;;;;4960947;28;19914;-26
2022/07/21 17:10:58;;;;;;;;;;;;;;;;;;4977884;28;19918;-28
2022/07/21 17:13:26;;;;;;;;;;;;;;;;;;4977731;28;20309;-26
2022/07/21 17:15:53;;;;;;;;;;;;;;;;;;4977981;28;19921;-29
2022/07/21 17:18:20;;;;;;;;;;;;;;;;;;4978525;28;19910;-31
2022/07/21 17:20:48;;;;;;;;;;;;;;;;;;4960447;28;19925;-31
2022/07/21 17:23:16;;;;;;;;;;;;;;;;;;4977767;28;19948;-25
2022/07/21 17:25:44;;;;;;;;;;;;;;;;;;4977809;28;19939;-31
2022/07/21 17:28:11;;;;;;;;;;;;;;;;;;4978520;28;20003;-32
2022/07/21 17:30:38;;;;;;;;;;;;;;;;;;4980750;28;19933;-33
2022/07/21 17:33:06;;;;;;;;;;;;;;;;;;4980704;28;19949;-29